createdAt,value
2019-01-19T00:00:44.659Z,18.1
2019-01-19T00:01:34.963Z,18.1
2019-01-19T00:02:24.798Z,18.1
2019-01-19T00:03:15.068Z,18.1
2019-01-19T00:04:05.343Z,18.1
2019-01-19T00:04:55.418Z,18.1
2019-01-19T00:05:44.986Z,18.1
2019-01-19T00:06:34.769Z,18.1
2019-01-19T00:07:25.641Z,18.1
2019-01-19T00:08:15.360Z,18.1
2019-01-19T00:09:05.951Z,18.1
2019-01-19T00:09:56.053Z,18.1
2019-01-19T00:10:45.843Z,18.1
2019-01-19T00:11:35.875Z,18.1
2019-01-19T00:12:25.925Z,18.1
2019-01-19T00:13:16.238Z,18.1
2019-01-19T00:14:06.315Z,18.1
2019-01-19T00:14:56.355Z,18.1
2019-01-19T00:15:46.145Z,18.1
2019-01-19T00:16:36.194Z,18.1
2019-01-19T00:17:25.988Z,18.1
2019-01-19T00:18:16.370Z,18.1
2019-01-19T00:19:06.630Z,18.1
2019-01-19T00:19:56.740Z,18.1
2019-01-19T00:20:46.214Z,18.1
2019-01-19T00:21:36.532Z,18.1
2019-01-19T00:22:26.597Z,18.1
2019-01-19T00:23:16.962Z,18.1
2019-01-19T00:24:06.419Z,18.1
2019-01-19T00:24:56.505Z,18.1
2019-01-19T00:25:46.544Z,18.1
2019-01-19T00:26:36.324Z,18.1
2019-01-19T00:27:26.922Z,18.1
2019-01-19T00:28:16.434Z,18.1
2019-01-19T00:29:07.332Z,18.1
2019-01-19T00:29:56.819Z,18.1
2019-01-19T00:30:46.947Z,18.1
2019-01-19T00:31:37.222Z,18.1
2019-01-19T00:32:27.289Z,18.1
2019-01-19T00:33:17.336Z,18.1
2019-01-19T00:34:07.419Z,18.1
2019-01-19T00:34:57.724Z,18.1
2019-01-19T00:35:47.216Z,18.1
2019-01-19T00:36:37.557Z,18.1
2019-01-19T00:37:27.111Z,18.1
2019-01-19T00:38:17.663Z,18.1
2019-01-19T00:39:07.716Z,18.1
2019-01-19T00:39:57.013Z,18.1
2019-01-19T00:40:48.109Z,18.1
2019-01-19T00:41:38.186Z,18.1
2019-01-19T00:42:27.951Z,18.1
2019-01-19T00:43:17.733Z,18.1
2019-01-19T00:44:07.239Z,18.1
2019-01-19T00:44:58.221Z,18.1
2019-01-19T00:45:48.178Z,18.1
2019-01-19T00:46:38.233Z,18.1
2019-01-19T00:47:28.568Z,18.1
2019-01-19T00:48:18.358Z,18.1
2019-01-19T00:49:08.418Z,18.1
2019-01-19T00:49:58.750Z,18.1
2019-01-19T00:50:48.255Z,18.1
2019-01-19T00:51:38.305Z,18.1
2019-01-19T00:52:28.928Z,18.1
2019-01-19T00:53:18.415Z,18.1
2019-01-19T00:54:08.753Z,18.1
2019-01-19T00:54:58.862Z,18.1
2019-01-19T00:55:48.593Z,18.1
2019-01-19T00:56:38.636Z,18.1
2019-01-19T00:57:28.707Z,18.1
2019-01-19T00:58:19.318Z,18.1
2019-01-19T00:59:09.365Z,18.1
2019-01-19T00:59:59.145Z,18.1
2019-01-19T01:00:48.370Z,18.1
2019-01-19T01:01:39.553Z,18.1
2019-01-19T01:02:29.605Z,18.1
2019-01-19T01:03:19.317Z,18.1
2019-01-19T01:04:09.702Z,18.1
2019-01-19T01:04:59.530Z,18.1
2019-01-19T01:05:49.570Z,18.1
2019-01-19T01:06:39.127Z,18.1
2019-01-19T01:07:29.659Z,18.1
2019-01-19T01:08:19.732Z,18.1
2019-01-19T01:09:09.774Z,18.1
2019-01-19T01:10:00.177Z,18.1
2019-01-19T01:10:50.159Z,18.1
2019-01-19T01:11:39.944Z,18.1
2019-01-19T01:12:29.724Z,18.1
2019-01-19T01:13:20.347Z,18.1
2019-01-19T01:14:10.392Z,18.1
2019-01-19T01:15:00.236Z,18.1
2019-01-19T01:15:50.231Z,18.1
2019-01-19T01:16:40.009Z,18.1
2019-01-19T01:17:30.616Z,18.1
2019-01-19T01:18:20.399Z,18.1
2019-01-19T01:19:10.465Z,18.1
2019-01-19T01:19:59.494Z,18.1
2019-01-19T01:20:50.386Z,18.1
2019-01-19T01:21:40.623Z,18.1
2019-01-19T01:22:29.726Z,18.1
2019-01-19T01:23:21.021Z,18.1
2019-01-19T01:24:10.604Z,18.1
2019-01-19T01:25:00.942Z,18.1
2019-01-19T01:25:50.636Z,18.1
2019-01-19T01:26:40.208Z,18.1
2019-01-19T01:27:30.296Z,18.1
2019-01-19T01:28:20.331Z,18.1
2019-01-19T01:29:10.933Z,18.1
2019-01-19T01:30:00.754Z,18.1
2019-01-19T01:30:51.038Z,18.1
2019-01-19T01:31:40.840Z,18.1
2019-01-19T01:32:30.658Z,18.1
2019-01-19T01:33:21.288Z,18.1
2019-01-19T01:34:11.037Z,18.1
2019-01-19T01:35:01.190Z,18.1
2019-01-19T01:35:51.448Z,18.1
2019-01-19T01:36:41.443Z,18.1
2019-01-19T01:37:31.511Z,18.1
2019-01-19T01:38:21.317Z,18.1
2019-01-19T01:39:10.525Z,18.1
2019-01-19T01:40:00.904Z,18.1
2019-01-19T01:40:51.922Z,18.1
2019-01-19T01:41:41.795Z,18.1
2019-01-19T01:42:31.853Z,18.1
2019-01-19T01:43:21.962Z,18.1
2019-01-19T01:44:11.988Z,18.1
2019-01-19T01:45:02.316Z,18.1
2019-01-19T01:45:51.722Z,18.1
2019-01-19T01:46:42.332Z,18.1
2019-01-19T01:47:32.456Z,18.1
2019-01-19T01:48:22.177Z,18.1
2019-01-19T01:49:12.789Z,18.1
2019-01-19T01:50:02.843Z,18.1
2019-01-19T01:50:52.892Z,18.1
2019-01-19T01:51:42.397Z,18.1
2019-01-19T01:52:33.007Z,18.1
2019-01-19T01:53:22.580Z,18.1
2019-01-19T01:54:12.586Z,18.1
2019-01-19T01:55:02.916Z,18.1
2019-01-19T01:55:53.242Z,18.1
2019-01-19T01:56:43.309Z,18.1
2019-01-19T01:57:33.076Z,18.1
2019-01-19T01:58:22.576Z,18.1
2019-01-19T01:59:13.466Z,18.1
2019-01-19T02:00:03.663Z,18.1
2019-01-19T02:00:53.571Z,18.1
2019-01-19T02:01:43.361Z,18.1
2019-01-19T02:02:33.709Z,18.1
2019-01-19T02:03:23.516Z,18.1
2019-01-19T02:04:13.809Z,18.1
2019-01-19T02:05:03.628Z,18.1
2019-01-19T02:05:53.633Z,18.1
2019-01-19T02:06:43.426Z,18.1
2019-01-19T02:07:34.030Z,18.1
2019-01-19T02:08:23.821Z,18.1
2019-01-19T02:09:14.151Z,18.1
2019-01-19T02:10:04.218Z,18.1
2019-01-19T02:10:53.989Z,18.1
2019-01-19T02:11:43.814Z,18.1
2019-01-19T02:12:33.551Z,18.1
2019-01-19T02:13:24.221Z,18.1
2019-01-19T02:14:13.660Z,18.1
2019-01-19T02:15:04.267Z,18.1
2019-01-19T02:15:54.343Z,18.1
2019-01-19T02:16:44.702Z,18.1
2019-01-19T02:17:34.717Z,18.1
2019-01-19T02:18:24.782Z,18.1
2019-01-19T02:19:14.842Z,18.1
2019-01-19T02:20:04.333Z,18.1
2019-01-19T02:20:54.667Z,18.1
2019-01-19T02:21:44.450Z,18.1
2019-01-19T02:22:35.056Z,18.1
2019-01-19T02:23:24.839Z,18.1
2019-01-19T02:24:14.629Z,18.1
2019-01-19T02:25:04.951Z,18.1
2019-01-19T02:25:55.292Z,18.1
2019-01-19T02:26:45.385Z,18.1
2019-01-19T02:27:35.122Z,18.1
2019-01-19T02:28:24.897Z,18.1
2019-01-19T02:29:15.529Z,18.1
2019-01-19T02:30:05.119Z,18.1
2019-01-19T02:30:55.624Z,18.1
2019-01-19T02:31:44.872Z,18.1
2019-01-19T02:32:35.475Z,18.1
2019-01-19T02:33:25.531Z,18.1
2019-01-19T02:34:15.578Z,18.1
2019-01-19T02:35:05.656Z,18.1
2019-01-19T02:35:55.417Z,18.1
2019-01-19T02:36:46.100Z,18.1
2019-01-19T02:37:36.106Z,18.1
2019-01-19T02:38:26.158Z,18.1
2019-01-19T02:39:15.921Z,18.1
2019-01-19T02:40:05.503Z,18.1
2019-01-19T02:40:55.839Z,18.1
2019-01-19T02:41:45.627Z,18.1
2019-01-19T02:42:35.946Z,18.1
2019-01-19T02:43:26.032Z,18.1
2019-01-19T02:44:15.511Z,18.1
2019-01-19T02:45:06.162Z,18.1
2019-01-19T02:45:56.677Z,18.1
2019-01-19T02:46:46.461Z,18.1
2019-01-19T02:47:36.768Z,18.1
2019-01-19T02:48:26.573Z,18.1
2019-01-19T02:49:16.611Z,18.1
2019-01-19T02:50:05.652Z,18.1
2019-01-19T02:50:56.523Z,18.1
2019-01-19T02:51:46.365Z,18.1
2019-01-19T02:52:36.375Z,18.1
2019-01-19T02:53:26.801Z,18.1
2019-01-19T02:54:16.481Z,18.1
2019-01-19T02:55:08.868Z,18.1
2019-01-19T02:55:56.999Z,18.1
2019-01-19T02:56:46.121Z,18.1
2019-01-19T02:57:36.698Z,18.1
2019-01-19T02:58:27.058Z,18.2
2019-01-19T02:59:16.286Z,18.1
2019-01-19T03:00:07.350Z,18.1
2019-01-19T03:00:57.421Z,18.2
2019-01-19T03:01:46.773Z,18.2
2019-01-19T03:02:37.537Z,18.2
2019-01-19T03:03:27.640Z,18.1
2019-01-19T03:04:17.452Z,18.2
2019-01-19T03:05:07.502Z,18.2
2019-01-19T03:08:40.335Z,18.2
2019-01-19T03:09:30.597Z,18.3
2019-01-19T03:10:20.613Z,18.2
2019-01-19T03:11:10.697Z,18.3
2019-01-19T03:12:00.466Z,18.2
2019-01-19T03:12:50.499Z,18.2
2019-01-19T03:13:40.824Z,18.3
2019-01-19T03:14:30.890Z,18.3
2019-01-19T03:15:20.949Z,18.3
2019-01-19T03:16:10.766Z,18.3
2019-01-19T03:17:00.796Z,18.3
2019-01-19T03:17:51.127Z,18.3
2019-01-19T03:18:41.301Z,18.3
2019-01-19T03:19:30.961Z,18.3
2019-01-19T03:20:21.279Z,18.3
2019-01-19T03:21:11.349Z,18.3
2019-01-19T03:22:01.651Z,18.3
2019-01-19T03:22:51.663Z,18.3
2019-01-19T03:23:41.998Z,18.3
2019-01-19T03:24:32.061Z,18.3
2019-01-19T03:25:21.676Z,18.3
2019-01-19T03:26:11.938Z,18.3
2019-01-19T03:27:01.982Z,18.3
2019-01-19T03:27:52.296Z,18.3
2019-01-19T03:28:42.384Z,18.3
2019-01-19T03:29:32.416Z,18.3
2019-01-19T03:30:22.742Z,18.3
2019-01-19T03:31:12.575Z,18.3
2019-01-19T03:32:02.398Z,18.3
2019-01-19T03:32:52.754Z,18.3
2019-01-19T03:33:42.687Z,18.3
2019-01-19T03:34:32.475Z,18.3
2019-01-19T03:35:22.520Z,18.3
2019-01-19T03:36:12.833Z,18.3
2019-01-19T03:37:02.911Z,18.3
2019-01-19T03:37:52.446Z,18.3
2019-01-19T03:38:42.758Z,18.3
2019-01-19T03:39:32.523Z,18.3
2019-01-19T03:40:22.879Z,18.3
2019-01-19T03:41:12.660Z,18.3
2019-01-19T03:42:02.990Z,18.3
2019-01-19T03:42:53.098Z,18.3
2019-01-19T03:43:42.857Z,18.3
2019-01-19T03:44:33.162Z,18.3
2019-01-19T03:45:23.497Z,18.3
2019-01-19T03:46:13.576Z,18.3
2019-01-19T03:47:03.038Z,18.3
2019-01-19T03:47:53.391Z,18.3
2019-01-19T03:48:43.430Z,18.3
2019-01-19T03:49:33.482Z,18.3
2019-01-19T03:50:23.526Z,18.3
2019-01-19T03:51:13.888Z,18.3
2019-01-19T03:52:03.660Z,18.3
2019-01-19T03:52:53.706Z,18.3
2019-01-19T03:53:43.782Z,18.3
2019-01-19T03:54:35.992Z,18.3
2019-01-19T03:55:23.961Z,18.3
2019-01-19T03:56:14.229Z,18.3
2019-01-19T03:57:04.292Z,18.3
2019-01-19T03:57:54.346Z,18.3
2019-01-19T03:58:43.561Z,18.3
2019-01-19T03:59:34.168Z,18.3
2019-01-19T04:00:24.009Z,18.3
2019-01-19T04:01:13.799Z,18.3
2019-01-19T04:02:03.847Z,18.3
2019-01-19T04:02:54.177Z,18.3
2019-01-19T04:03:44.241Z,18.3
2019-01-19T04:04:34.285Z,18.3
2019-01-19T04:05:24.568Z,18.3
2019-01-19T04:06:15.833Z,18.3
2019-01-19T04:07:04.678Z,18.3
2019-01-19T04:07:54.723Z,18.3
2019-01-19T04:08:45.084Z,18.3
2019-01-19T04:09:34.831Z,18.3
2019-01-19T04:10:24.526Z,18.3
2019-01-19T04:11:14.938Z,18.3
2019-01-19T04:12:05.278Z,18.3
2019-01-19T04:12:55.259Z,18.3
2019-01-19T04:13:45.473Z,18.3
2019-01-19T04:14:35.222Z,18.3
2019-01-19T04:15:25.523Z,18.3
2019-01-19T04:16:14.769Z,18.3
2019-01-19T04:17:05.060Z,18.3
2019-01-19T04:17:55.738Z,18.3
2019-01-19T04:18:45.725Z,18.3
2019-01-19T04:19:35.822Z,18.3
2019-01-19T04:20:25.915Z,18.3
2019-01-19T04:21:15.724Z,18.3
2019-01-19T04:22:05.714Z,18.3
2019-01-19T04:22:56.086Z,18.3
2019-01-19T04:23:45.240Z,18.3
2019-01-19T04:24:35.662Z,18.3
2019-01-19T04:25:25.757Z,18.3
2019-01-19T04:26:16.302Z,18.3
2019-01-19T04:27:06.310Z,18.3
2019-01-19T04:27:56.137Z,18.3
2019-01-19T04:28:46.447Z,18.3
2019-01-19T04:29:36.514Z,18.3
2019-01-19T04:30:26.250Z,18.3
2019-01-19T04:31:16.309Z,18.3
2019-01-19T04:32:06.239Z,18.3
2019-01-19T04:32:56.432Z,18.3
2019-01-19T04:33:46.759Z,18.3
2019-01-19T04:34:36.816Z,18.3
2019-01-19T04:35:26.911Z,18.3
2019-01-19T04:36:24.809Z,18.3
2019-01-19T04:37:06.498Z,18.3
2019-01-19T04:37:56.788Z,18.3
2019-01-19T04:38:47.131Z,18.3
2019-01-19T04:39:37.211Z,18.3
2019-01-19T04:40:26.954Z,18.3
2019-01-19T04:41:17.104Z,18.3
2019-01-19T04:42:07.414Z,18.3
2019-01-19T04:42:57.409Z,18.3
2019-01-19T04:43:47.186Z,18.3
2019-01-19T04:44:37.516Z,18.3
2019-01-19T04:45:27.570Z,18.3
2019-01-19T04:46:17.072Z,18.3
2019-01-19T04:47:07.164Z,18.3
2019-01-19T04:47:57.508Z,18.3
2019-01-19T04:48:47.777Z,18.3
2019-01-19T04:49:37.838Z,18.3
2019-01-19T04:50:27.893Z,18.3
2019-01-19T04:51:17.946Z,18.3
2019-01-19T04:52:08.028Z,18.3
2019-01-19T04:52:57.790Z,18.3
2019-01-19T04:53:47.887Z,18.3
2019-01-19T04:54:37.941Z,18.3
2019-01-19T04:55:27.962Z,18.3
2019-01-19T04:56:18.297Z,18.3
2019-01-19T04:57:08.350Z,18.3
2019-01-19T04:57:58.149Z,18.3
2019-01-19T04:58:48.210Z,18.3
2019-01-19T04:59:38.515Z,18.3
2019-01-19T05:00:28.025Z,18.3
2019-01-19T05:01:18.703Z,18.3
2019-01-19T05:02:08.695Z,18.3
2019-01-19T05:02:58.761Z,18.3
2019-01-19T05:03:48.055Z,18.3
2019-01-19T05:04:38.883Z,18.3
2019-01-19T05:05:28.453Z,18.3
2019-01-19T05:06:20.270Z,18.3
2019-01-19T05:07:08.540Z,18.3
2019-01-19T05:07:58.606Z,18.3
2019-01-19T05:08:48.671Z,18.3
2019-01-19T05:09:38.714Z,18.3
2019-01-19T05:10:28.788Z,18.3
2019-01-19T05:11:18.843Z,18.3
2019-01-19T05:12:08.621Z,18.3
2019-01-19T05:12:59.161Z,18.3
2019-01-19T05:13:49.215Z,18.3
2019-01-19T05:14:39.002Z,18.3
2019-01-19T05:15:29.320Z,18.3
2019-01-19T05:16:19.362Z,18.3
2019-01-19T05:17:09.740Z,18.3
2019-01-19T05:17:59.033Z,18.3
2019-01-19T05:18:48.782Z,18.3
2019-01-19T05:19:39.402Z,18.3
2019-01-19T05:20:29.467Z,18.3
2019-01-19T05:21:18.968Z,18.3
2019-01-19T05:22:09.773Z,18.3
2019-01-19T05:23:00.100Z,18.3
2019-01-19T05:23:49.880Z,18.3
2019-01-19T05:24:39.727Z,18.3
2019-01-19T05:25:29.794Z,18.3
2019-01-19T05:26:19.569Z,18.3
2019-01-19T05:27:09.905Z,18.3
2019-01-19T05:27:59.677Z,18.3
2019-01-19T05:28:50.207Z,18.3
2019-01-19T05:29:40.291Z,18.3
2019-01-19T05:30:30.614Z,18.3
2019-01-19T05:31:20.439Z,18.3
2019-01-19T05:32:10.449Z,18.4
2019-01-19T05:33:00.247Z,18.4
2019-01-19T05:33:50.551Z,18.4
2019-01-19T05:34:40.907Z,18.5
2019-01-19T05:35:30.663Z,18.5
2019-01-19T05:36:20.291Z,18.5
2019-01-19T05:37:10.591Z,18.6
2019-01-19T05:38:02.691Z,18.6
2019-01-19T05:38:50.464Z,18.6
2019-01-19T05:39:40.749Z,18.6
2019-01-19T05:40:30.531Z,18.6
2019-01-19T05:41:20.856Z,18.6
2019-01-19T05:42:11.403Z,18.6
2019-01-19T05:45:31.402Z,18.8
2019-01-19T05:46:24.463Z,18.8
2019-01-19T05:47:11.762Z,18.8
2019-01-19T05:48:01.824Z,18.9
2019-01-19T05:48:51.563Z,18.8
2019-01-19T05:49:41.910Z,18.8
2019-01-19T05:50:32.012Z,18.8
2019-01-19T05:51:21.733Z,18.8
2019-01-19T05:55:32.031Z,18.6
2019-01-19T05:56:21.970Z,18.6
2019-01-19T05:57:12.455Z,18.6
2019-01-19T05:58:02.196Z,18.6
2019-01-19T05:58:51.990Z,18.6
2019-01-19T05:59:42.582Z,18.6
2019-01-19T06:00:32.650Z,18.6
2019-01-19T06:01:22.689Z,18.6
2019-01-19T06:02:12.769Z,18.6
2019-01-19T06:03:02.557Z,18.6
2019-01-19T06:03:52.882Z,18.6
2019-01-19T06:04:42.683Z,18.6
2019-01-19T06:06:49.297Z,18.6
2019-01-19T06:07:30.632Z,18.6
2019-01-19T06:08:20.959Z,18.6
2019-01-19T06:09:11.005Z,18.6
2019-01-19T06:10:00.502Z,18.6
2019-01-19T06:10:50.824Z,18.6
2019-01-19T06:11:40.891Z,18.6
2019-01-19T06:12:30.647Z,18.6
2019-01-19T06:13:21.039Z,18.6
2019-01-19T06:14:11.321Z,18.6
2019-01-19T06:15:00.833Z,18.6
2019-01-19T06:15:50.879Z,18.6
2019-01-19T06:16:40.992Z,18.6
2019-01-19T06:17:30.725Z,18.6
2019-01-19T06:18:21.602Z,18.6
2019-01-19T06:19:11.674Z,18.6
2019-01-19T06:20:01.511Z,18.6
2019-01-19T06:20:51.483Z,18.6
2019-01-19T06:21:40.986Z,18.6
2019-01-19T06:22:31.346Z,18.6
2019-01-19T06:23:21.695Z,18.6
2019-01-19T06:24:11.449Z,18.6
2019-01-19T06:25:02.098Z,18.6
2019-01-19T06:25:51.735Z,18.6
2019-01-19T06:26:41.328Z,18.6
2019-01-19T06:27:31.669Z,18.6
2019-01-19T06:28:22.001Z,18.5
2019-01-19T06:29:12.106Z,18.6
2019-01-19T06:30:01.844Z,18.6
2019-01-19T06:30:52.186Z,18.5
2019-01-19T06:31:41.671Z,18.6
2019-01-19T06:32:32.078Z,18.6
2019-01-19T06:33:21.903Z,18.5
2019-01-19T06:34:11.922Z,18.5
2019-01-19T06:35:01.738Z,18.6
2019-01-19T06:35:52.498Z,18.5
2019-01-19T06:36:42.658Z,18.5
2019-01-19T06:37:32.921Z,18.5
2019-01-19T06:38:22.432Z,18.5
2019-01-19T06:39:12.538Z,18.5
2019-01-19T06:40:02.506Z,18.5
2019-01-19T06:40:53.133Z,18.5
2019-01-19T06:41:42.907Z,18.5
2019-01-19T06:42:32.959Z,18.5
2019-01-19T06:43:23.291Z,18.5
2019-01-19T06:44:13.123Z,18.5
2019-01-19T06:45:03.252Z,18.5
2019-01-19T06:45:52.925Z,18.5
2019-01-19T06:46:43.507Z,18.5
2019-01-19T06:47:33.559Z,18.5
2019-01-19T06:48:23.349Z,18.5
2019-01-19T06:49:13.689Z,18.5
2019-01-19T06:50:03.554Z,18.5
2019-01-19T06:50:53.792Z,18.5
2019-01-19T06:51:43.837Z,18.5
2019-01-19T06:52:33.347Z,18.5
2019-01-19T06:53:23.976Z,18.5
2019-01-19T06:54:13.729Z,18.5
2019-01-19T06:55:03.536Z,18.4
2019-01-19T06:55:53.855Z,18.5
2019-01-19T06:56:43.442Z,18.5
2019-01-19T06:57:33.759Z,18.5
2019-01-19T06:58:24.301Z,18.4
2019-01-19T06:59:20.337Z,18.4
2019-01-19T07:00:03.861Z,18.4
2019-01-19T07:00:54.477Z,18.4
2019-01-19T07:01:44.528Z,18.5
2019-01-19T07:02:34.575Z,18.4
2019-01-19T07:03:24.703Z,18.4
2019-01-19T07:04:14.428Z,18.4
2019-01-19T07:06:40.926Z,18.4
2019-01-19T07:07:30.836Z,18.4
2019-01-19T07:08:22.298Z,18.4
2019-01-19T07:09:10.683Z,18.4
2019-01-19T07:10:00.995Z,18.4
2019-01-19T07:10:51.061Z,18.4
2019-01-19T07:11:41.116Z,18.4
2019-01-19T07:12:31.187Z,18.4
2019-01-19T07:13:20.992Z,18.4
2019-01-19T07:14:11.285Z,18.4
2019-01-19T07:15:01.338Z,18.4
2019-01-19T07:15:51.467Z,18.4
2019-01-19T07:16:41.220Z,18.4
2019-01-19T07:17:31.546Z,18.4
2019-01-19T07:18:21.569Z,18.4
2019-01-19T07:19:11.612Z,18.4
2019-01-19T07:20:00.925Z,18.4
2019-01-19T07:20:51.305Z,18.4
2019-01-19T07:21:41.802Z,18.4
2019-01-19T07:22:31.849Z,18.4
2019-01-19T07:23:21.917Z,18.4
2019-01-19T07:24:11.971Z,18.4
2019-01-19T07:25:02.227Z,18.4
2019-01-19T07:25:51.851Z,18.4
2019-01-19T07:26:42.115Z,18.4
2019-01-19T07:27:32.190Z,18.4
2019-01-19T07:28:21.977Z,18.4
2019-01-19T07:29:12.307Z,18.4
2019-01-19T07:30:02.394Z,18.4
2019-01-19T07:30:52.392Z,18.4
2019-01-19T07:31:42.469Z,18.4
2019-01-19T07:32:32.517Z,18.4
2019-01-19T07:33:22.304Z,18.4
2019-01-19T07:34:12.354Z,18.4
2019-01-19T07:35:02.502Z,18.3
2019-01-19T07:35:52.499Z,18.4
2019-01-19T07:36:42.531Z,18.4
2019-01-19T07:37:32.854Z,18.4
2019-01-19T07:38:22.974Z,18.4
2019-01-19T07:39:12.966Z,18.3
2019-01-19T07:40:02.826Z,18.3
2019-01-19T07:40:53.074Z,18.4
2019-01-19T07:41:43.146Z,18.4
2019-01-19T07:42:34.514Z,18.4
2019-01-19T07:43:22.723Z,18.3
2019-01-19T07:44:13.311Z,18.3
2019-01-19T07:45:03.448Z,18.4
2019-01-19T07:45:52.911Z,18.3
2019-01-19T07:46:43.208Z,18.3
2019-01-19T07:47:33.525Z,18.3
2019-01-19T07:48:23.578Z,18.3
2019-01-19T07:49:13.640Z,18.3
2019-01-19T07:50:03.455Z,18.3
2019-01-19T07:50:53.748Z,18.3
2019-01-19T07:51:43.830Z,18.3
2019-01-19T07:52:33.920Z,18.3
2019-01-19T07:53:23.942Z,18.3
2019-01-19T07:54:13.990Z,18.3
2019-01-19T07:55:03.762Z,18.3
2019-01-19T07:55:53.845Z,18.4
2019-01-19T07:56:44.158Z,18.3
2019-01-19T07:57:34.907Z,18.3
2019-01-19T07:58:24.250Z,18.3
2019-01-19T07:59:14.320Z,18.3
2019-01-19T08:00:04.395Z,18.3
2019-01-19T08:00:54.155Z,18.3
2019-01-19T08:01:44.499Z,18.3
2019-01-19T08:02:33.707Z,18.3
2019-01-19T08:03:24.331Z,18.3
2019-01-19T08:04:14.652Z,18.3
2019-01-19T08:05:04.155Z,18.3
2019-01-19T08:05:54.777Z,18.3
2019-01-19T08:06:44.514Z,18.3
2019-01-19T08:07:34.894Z,18.3
2019-01-19T08:08:24.939Z,18.3
2019-01-19T08:09:14.712Z,18.3
2019-01-19T08:10:04.772Z,18.3
2019-01-19T08:10:54.557Z,18.3
2019-01-19T08:11:45.172Z,18.3
2019-01-19T08:12:35.226Z,18.3
2019-01-19T08:13:25.326Z,18.3
2019-01-19T08:14:14.779Z,18.3
2019-01-19T08:15:05.136Z,18.3
2019-01-19T08:15:55.501Z,18.3
2019-01-19T08:16:45.508Z,18.3
2019-01-19T08:17:35.561Z,18.3
2019-01-19T08:18:25.339Z,18.3
2019-01-19T08:19:15.673Z,18.3
2019-01-19T08:20:05.721Z,18.3
2019-01-19T08:20:55.503Z,18.3
2019-01-19T08:21:45.843Z,18.3
2019-01-19T08:22:35.623Z,18.3
2019-01-19T08:23:27.701Z,18.3
2019-01-19T08:24:15.731Z,18.3
2019-01-19T08:25:06.055Z,18.3
2019-01-19T08:25:56.120Z,18.3
2019-01-19T08:26:46.181Z,18.3
2019-01-19T08:27:35.675Z,18.3
2019-01-19T08:28:26.320Z,18.3
2019-01-19T08:29:16.350Z,18.3
2019-01-19T08:30:06.403Z,18.3
2019-01-19T08:30:56.187Z,18.3
2019-01-19T08:31:46.530Z,18.3
2019-01-19T08:32:36.608Z,18.3
2019-01-19T08:33:26.413Z,18.3
2019-01-19T08:34:16.693Z,18.3
2019-01-19T08:35:06.766Z,18.3
2019-01-19T08:35:56.787Z,18.3
2019-01-19T08:36:46.850Z,18.3
2019-01-19T08:37:36.900Z,18.3
2019-01-19T08:38:26.967Z,18.3
2019-01-19T08:39:18.220Z,18.3
2019-01-19T08:40:07.080Z,18.3
2019-01-19T08:40:58.732Z,18.3
2019-01-19T08:41:47.181Z,18.3
2019-01-19T08:42:36.969Z,18.3
2019-01-19T08:43:27.317Z,18.3
2019-01-19T08:44:17.078Z,18.3
2019-01-19T08:45:07.435Z,18.3
2019-01-19T08:45:57.199Z,18.3
2019-01-19T08:46:47.542Z,18.3
2019-01-19T08:47:37.594Z,18.3
2019-01-19T08:48:27.641Z,18.3
2019-01-19T08:49:17.755Z,18.3
2019-01-19T08:50:07.754Z,18.3
2019-01-19T08:50:57.801Z,18.3
2019-01-19T08:51:47.872Z,18.3
2019-01-19T08:52:37.925Z,18.3
2019-01-19T08:53:27.984Z,18.3
2019-01-19T08:54:17.757Z,18.3
2019-01-19T08:55:07.808Z,18.3
2019-01-19T08:55:58.151Z,18.3
2019-01-19T08:56:48.218Z,18.3
2019-01-19T08:57:38.272Z,18.3
2019-01-19T08:58:28.049Z,18.3
2019-01-19T08:59:18.373Z,18.3
2019-01-19T09:00:08.426Z,18.3
2019-01-19T09:00:58.496Z,18.3
2019-01-19T09:01:48.565Z,18.3
2019-01-19T09:02:38.595Z,18.3
2019-01-19T09:03:28.386Z,18.3
2019-01-19T09:04:18.763Z,18.3
2019-01-19T09:05:08.481Z,18.3
2019-01-19T09:05:58.873Z,18.4
2019-01-19T09:06:48.888Z,18.3
2019-01-19T09:07:38.463Z,18.3
2019-01-19T09:08:29.051Z,18.3
2019-01-19T09:09:18.778Z,18.3
2019-01-19T09:10:09.108Z,18.4
2019-01-19T09:10:58.677Z,18.3
2019-01-19T09:11:49.223Z,18.4
2019-01-19T09:12:39.277Z,18.3
2019-01-19T09:13:29.587Z,18.4
2019-01-19T09:14:19.386Z,18.4
2019-01-19T09:15:09.452Z,18.4
2019-01-19T09:15:59.513Z,18.4
2019-01-19T09:16:49.625Z,18.4
2019-01-19T09:17:39.635Z,18.4
2019-01-19T09:18:29.387Z,18.4
2019-01-19T09:19:19.745Z,18.4
2019-01-19T09:20:09.780Z,18.4
2019-01-19T09:20:59.577Z,18.3
2019-01-19T09:21:51.215Z,18.4
2019-01-19T09:22:39.742Z,18.4
2019-01-19T09:23:29.744Z,18.4
2019-01-19T09:24:20.097Z,18.4
2019-01-19T09:25:10.132Z,18.4
2019-01-19T09:25:59.909Z,18.3
2019-01-19T09:26:49.957Z,18.4
2019-01-19T09:27:40.069Z,18.3
2019-01-19T09:28:30.351Z,18.4
2019-01-19T09:29:20.139Z,18.3
2019-01-19T09:30:10.191Z,18.3
2019-01-19T09:31:00.530Z,18.3
2019-01-19T09:31:50.332Z,18.3
2019-01-19T09:32:40.646Z,18.3
2019-01-19T09:33:30.715Z,18.3
2019-01-19T09:34:20.477Z,18.3
2019-01-19T09:35:10.810Z,18.3
2019-01-19T09:36:00.868Z,18.3
2019-01-19T09:36:50.642Z,18.3
2019-01-19T09:37:44.381Z,18.3
2019-01-19T09:38:31.083Z,18.3
2019-01-19T09:39:21.091Z,18.3
2019-01-19T09:40:12.694Z,18.3
2019-01-19T09:41:01.201Z,18.3
2019-01-19T09:41:51.251Z,18.4
2019-01-19T09:42:41.033Z,18.3
2019-01-19T09:43:31.378Z,18.3
2019-01-19T09:44:21.438Z,18.3
2019-01-19T09:45:11.483Z,18.3
2019-01-19T09:46:01.535Z,18.3
2019-01-19T09:46:51.053Z,18.4
2019-01-19T09:47:41.642Z,18.3
2019-01-19T09:48:31.715Z,18.3
2019-01-19T09:49:21.785Z,18.3
2019-01-19T09:50:11.534Z,18.3
2019-01-19T09:51:01.610Z,18.3
2019-01-19T09:51:51.659Z,18.3
2019-01-19T09:52:42.003Z,18.3
2019-01-19T09:53:32.050Z,18.3
2019-01-19T09:54:22.156Z,18.4
2019-01-19T09:55:11.901Z,18.3
2019-01-19T09:56:02.278Z,18.3
2019-01-19T09:56:52.262Z,18.3
2019-01-19T09:57:42.345Z,18.3
2019-01-19T09:58:32.386Z,18.3
2019-01-19T09:59:22.448Z,18.3
2019-01-19T10:00:12.542Z,18.3
2019-01-19T10:01:02.292Z,18.3
2019-01-19T10:01:52.625Z,18.3
2019-01-19T10:02:42.394Z,18.4
2019-01-19T10:03:32.740Z,18.3
2019-01-19T10:04:22.499Z,18.3
2019-01-19T10:05:12.871Z,18.3
2019-01-19T10:07:40.057Z,18.3
2019-01-19T10:08:30.121Z,18.3
2019-01-19T10:09:20.737Z,18.3
2019-01-19T10:10:10.561Z,18.3
2019-01-19T10:11:00.855Z,18.3
2019-01-19T10:11:50.964Z,18.3
2019-01-19T10:12:40.676Z,18.3
2019-01-19T10:13:31.032Z,18.3
2019-01-19T10:14:21.111Z,18.3
2019-01-19T10:15:10.851Z,18.3
2019-01-19T10:16:00.638Z,18.3
2019-01-19T10:16:50.968Z,18.3
2019-01-19T10:17:41.023Z,18.3
2019-01-19T10:18:30.793Z,18.3
2019-01-19T10:19:21.135Z,18.3
2019-01-19T10:20:11.241Z,18.4
2019-01-19T10:21:01.530Z,18.3
2019-01-19T10:21:51.589Z,18.4
2019-01-19T10:22:41.683Z,18.3
2019-01-19T10:23:31.136Z,18.3
2019-01-19T10:24:21.776Z,18.3
2019-01-19T10:25:11.809Z,18.3
2019-01-19T10:26:01.861Z,18.4
2019-01-19T10:26:51.938Z,18.3
2019-01-19T10:27:41.968Z,18.3
2019-01-19T10:28:32.043Z,18.3
2019-01-19T10:29:21.060Z,18.3
2019-01-19T10:30:11.918Z,18.3
2019-01-19T10:31:02.212Z,18.3
2019-01-19T10:31:51.721Z,18.3
2019-01-19T10:32:41.845Z,18.3
2019-01-19T10:33:32.374Z,18.3
2019-01-19T10:34:22.443Z,18.3
2019-01-19T10:35:12.491Z,18.3
2019-01-19T10:36:01.970Z,18.3
2019-01-19T10:36:52.610Z,18.3
2019-01-19T10:37:42.395Z,18.3
2019-01-19T10:38:31.957Z,18.3
2019-01-19T10:39:22.067Z,18.3
2019-01-19T10:40:12.555Z,18.3
2019-01-19T10:41:02.879Z,18.3
2019-01-19T10:41:52.680Z,18.3
2019-01-19T10:42:42.992Z,18.3
2019-01-19T10:43:33.077Z,18.3
2019-01-19T10:44:23.116Z,18.3
2019-01-19T10:45:13.156Z,18.3
2019-01-19T10:46:02.961Z,18.3
2019-01-19T10:46:53.346Z,18.3
2019-01-19T10:47:43.071Z,18.3
2019-01-19T10:48:33.123Z,18.3
2019-01-19T10:49:23.177Z,18.3
2019-01-19T10:50:13.299Z,18.3
2019-01-19T10:51:03.571Z,18.3
2019-01-19T10:52:00.435Z,18.3
2019-01-19T10:52:43.691Z,18.3
2019-01-19T10:53:33.732Z,18.3
2019-01-19T10:54:23.571Z,18.3
2019-01-19T10:55:12.524Z,18.3
2019-01-19T10:56:03.456Z,18.3
2019-01-19T10:56:53.204Z,18.3
2019-01-19T10:57:43.274Z,18.3
2019-01-19T10:58:33.311Z,18.3
2019-01-19T10:59:23.654Z,18.3
2019-01-19T11:00:13.704Z,18.3
2019-01-19T11:01:03.238Z,18.3
2019-01-19T11:01:54.315Z,18.3
2019-01-19T11:02:44.098Z,18.3
2019-01-19T11:03:34.143Z,18.3
2019-01-19T11:04:24.186Z,18.3
2019-01-19T11:05:14.521Z,18.3
2019-01-19T11:06:04.693Z,18.3
2019-01-19T11:06:54.647Z,18.3
2019-01-19T11:07:44.693Z,18.3
2019-01-19T11:08:34.495Z,18.3
2019-01-19T11:09:24.547Z,18.3
2019-01-19T11:10:14.607Z,18.3
2019-01-19T11:11:04.932Z,18.3
2019-01-19T11:11:54.980Z,18.3
2019-01-19T11:12:44.497Z,18.3
2019-01-19T11:13:35.082Z,18.3
2019-01-19T11:14:24.892Z,18.3
2019-01-19T11:15:14.995Z,18.3
2019-01-19T11:16:05.282Z,18.3
2019-01-19T11:16:54.497Z,18.3
2019-01-19T11:17:44.639Z,18.3
2019-01-19T11:18:34.887Z,18.3
2019-01-19T11:19:25.224Z,18.3